Amery, Wisconsin
Current Conditions -  °F | °C
As of 11:35 PM on Thursday 27 Nov 2014 (Local Time) from KRNH Reporting Station
Overcast Overcast  
Wind Chill: -3°   Ceiling: 3400
Heat Index:   Visibility: 10mi
Dew Point:   Wind: 8mph
Humidity: 70%   Direction: 180°S
Pressure: 30.29"   Gusts: NA
Location:  45.31°N, 92.36°W
Report Text: KRNH 280535Z AUTO 18007KT 10SM SCT028 BKN034 OVC045 M13/M17 A3029 RMK AO2 T11271171
Loading
Personal Weather Stations






























Interactive Weather Map New forecast layout! Learn more

10-Day Weather Forecast

Advertisements
Track Severe Weather on mobile